createdAt,value
2024-02-22T00:01:57.780Z,55.20
2024-02-22T00:04:26.517Z,53.83
2024-02-22T00:06:55.143Z,58.13
2024-02-22T00:09:23.653Z,52.75
2024-02-22T00:11:52.430Z,52.75
2024-02-22T00:14:21.568Z,53.22
2024-02-22T00:16:50.812Z,56.03
2024-02-22T00:19:19.897Z,53.22
2024-02-22T00:21:48.540Z,53.45
2024-02-22T00:24:17.128Z,51.63
2024-02-22T00:26:47.277Z,52.80
2024-02-22T00:29:16.026Z,54.47
2024-02-22T00:31:44.623Z,54.35
2024-02-22T00:34:13.464Z,53.30
2024-02-22T00:36:45.641Z,54.75
2024-02-22T00:39:15.836Z,54.80
2024-02-22T00:41:44.337Z,53.58
2024-02-22T00:44:12.979Z,54.00
2024-02-22T00:46:41.546Z,54.83
2024-02-22T00:49:10.215Z,55.50
2024-02-22T00:51:38.808Z,56.55
2024-02-22T00:54:07.351Z,56.65
2024-02-22T00:56:36.007Z,56.20
2024-02-22T00:59:04.635Z,58.85
2024-02-22T01:01:33.642Z,55.55
2024-02-22T01:04:02.965Z,54.65
2024-02-22T01:06:33.077Z,56.28
2024-02-22T01:09:02.178Z,54.03
2024-02-22T01:11:30.831Z,52.17
2024-02-22T01:13:59.466Z,55.67
2024-02-22T01:16:28.190Z,53.17
2024-02-22T01:18:56.974Z,52.25
2024-02-22T01:21:25.613Z,51.88
2024-02-22T01:23:54.246Z,53.65
2024-02-22T01:26:23.354Z,44.00
2024-02-22T01:28:52.255Z,44.28
2024-02-22T01:31:20.837Z,52.03
2024-02-22T01:33:49.542Z,51.88
2024-02-22T01:36:19.708Z,52.17
2024-02-22T01:38:48.271Z,49.88
2024-02-22T01:41:17.787Z,53.03
2024-02-22T01:43:46.406Z,41.10
2024-02-22T01:46:15.813Z,51.97
2024-02-22T01:48:44.851Z,52.75
2024-02-22T01:51:13.440Z,52.55
2024-02-22T01:53:42.705Z,52.35
2024-02-22T01:56:13.208Z,52.25
2024-02-22T01:58:42.400Z,50.85
2024-02-22T02:01:12.936Z,50.42
2024-02-22T02:03:46.862Z,51.10
2024-02-22T02:06:15.529Z,39.67
2024-02-22T02:08:44.270Z,55.22
2024-02-22T02:11:12.909Z,50.10
2024-02-22T02:13:41.528Z,51.42
2024-02-22T02:16:10.138Z,51.15
2024-02-22T02:18:40.112Z,53.30
2024-02-22T02:21:38.510Z,53.17
2024-02-22T02:24:34.355Z,54.53
2024-02-22T02:27:03.179Z,55.60
2024-02-22T02:29:32.004Z,54.30
2024-02-22T02:32:00.579Z,49.20
2024-02-22T02:34:29.212Z,52.60
2024-02-22T02:36:57.819Z,49.65
2024-02-22T02:39:26.354Z,52.15
2024-02-22T02:41:54.938Z,52.83
2024-02-22T02:44:23.625Z,52.40
2024-02-22T02:46:52.323Z,52.00
2024-02-22T02:49:21.107Z,56.75
2024-02-22T02:51:49.936Z,53.55
2024-02-22T02:54:18.505Z,54.42
2024-02-22T02:56:48.793Z,54.70
2024-02-22T02:59:18.888Z,52.58
2024-02-22T03:01:48.831Z,41.20
2024-02-22T03:04:20.745Z,52.33
2024-02-22T03:06:49.509Z,56.75
2024-02-22T03:09:18.116Z,54.88
2024-02-22T03:11:46.806Z,52.65
2024-02-22T03:14:17.337Z,53.55
2024-02-22T03:16:45.929Z,52.55
2024-02-22T03:19:14.506Z,49.67
2024-02-22T03:21:43.031Z,48.60
2024-02-22T03:24:11.518Z,57.17
2024-02-22T03:26:40.017Z,49.25
2024-02-22T03:29:09.772Z,52.60
2024-02-22T03:31:38.335Z,54.40
2024-02-22T03:34:06.960Z,53.00
2024-02-22T03:36:36.017Z,51.72
2024-02-22T03:39:06.963Z,51.40
2024-02-22T03:41:35.572Z,51.22
2024-02-22T03:44:04.595Z,50.70
2024-02-22T03:46:33.219Z,51.42
2024-02-22T03:49:01.854Z,51.97
2024-02-22T03:51:30.649Z,51.60
2024-02-22T03:54:02.190Z,50.33
2024-02-22T03:56:30.751Z,51.65
2024-02-22T03:58:59.287Z,54.08
2024-02-22T04:01:28.345Z,51.80
2024-02-22T04:03:56.947Z,52.95
2024-02-22T04:06:26.536Z,52.47
2024-02-22T04:08:55.141Z,53.90
2024-02-22T04:11:23.734Z,53.70
2024-02-22T04:13:52.399Z,52.60
2024-02-22T04:16:21.004Z,50.90
2024-02-22T04:18:49.670Z,50.33
2024-02-22T04:21:18.330Z,51.58
2024-02-22T04:23:46.923Z,177.48
2024-02-22T04:26:15.450Z,141.15
2024-02-22T04:28:44.082Z,133.25
2024-02-22T04:31:13.784Z,223.02
2024-02-22T04:33:43.046Z,123.72
2024-02-22T04:36:11.577Z,134.85
2024-02-22T04:38:40.226Z,343.48
2024-02-22T04:41:09.307Z,141.80
2024-02-22T04:43:37.866Z,156.13
2024-02-22T04:46:06.472Z,133.23
2024-02-22T04:48:35.120Z,127.50
2024-02-22T04:51:03.707Z,124.85
2024-02-22T04:53:32.267Z,129.35
2024-02-22T04:56:01.075Z,122.57
2024-02-22T04:58:29.772Z,123.65
2024-02-22T05:00:58.385Z,128.98
2024-02-22T05:03:26.999Z,119.53
2024-02-22T05:05:55.524Z,118.65
2024-02-22T05:08:26.712Z,123.25
2024-02-22T05:10:57.132Z,122.82
2024-02-22T05:13:26.103Z,119.05
2024-02-22T05:15:54.609Z,127.45
2024-02-22T05:18:23.571Z,125.43
2024-02-22T05:20:52.365Z,113.47
2024-02-22T05:23:20.818Z,117.82
2024-02-22T05:25:49.272Z,112.63
2024-02-22T05:28:18.390Z,106.15
2024-02-22T05:30:46.807Z,117.90
2024-02-22T05:33:15.419Z,100.82
2024-02-22T05:35:43.947Z,107.32
2024-02-22T05:38:12.478Z,103.95
2024-02-22T05:40:43.108Z,118.30
2024-02-22T05:43:12.418Z,117.63
2024-02-22T05:45:48.945Z,102.50
2024-02-22T05:48:17.523Z,116.53
2024-02-22T05:50:49.320Z,111.93
2024-02-22T05:53:18.434Z,112.05
2024-02-22T05:55:46.905Z,110.72
2024-02-22T05:58:20.398Z,114.95
2024-02-22T06:00:49.016Z,115.15
2024-02-22T06:03:17.467Z,109.63
2024-02-22T06:05:46.219Z,112.18
2024-02-22T06:08:14.771Z,93.82
2024-02-22T06:10:43.310Z,114.03
2024-02-22T06:13:11.819Z,114.82
2024-02-22T06:15:40.294Z,87.20
2024-02-22T06:18:09.082Z,102.00
2024-02-22T06:20:37.695Z,102.78
2024-02-22T06:23:06.329Z,99.75
2024-02-22T06:25:34.897Z,84.72
2024-02-22T06:28:04.402Z,106.68
2024-02-22T06:30:32.899Z,105.22
2024-02-22T06:33:01.477Z,102.72
2024-02-22T06:35:30.072Z,102.90
2024-02-22T06:37:58.544Z,97.82
2024-02-22T06:40:27.495Z,99.18
2024-02-22T06:42:55.966Z,100.47
2024-02-22T06:45:26.530Z,98.88
2024-02-22T06:47:55.125Z,74.35
2024-02-22T06:50:25.181Z,94.25
2024-02-22T06:52:53.988Z,95.38
2024-02-22T06:55:26.852Z,74.50
2024-02-22T06:57:56.248Z,95.30
2024-02-22T07:00:25.932Z,85.82
2024-02-22T07:02:54.735Z,100.22
2024-02-22T07:05:23.374Z,78.25
2024-02-22T07:07:52.108Z,96.97
2024-02-22T07:10:20.691Z,73.43
2024-02-22T07:12:49.225Z,70.55
2024-02-22T07:15:18.504Z,91.85
2024-02-22T07:17:47.827Z,95.22
2024-02-22T07:20:16.772Z,78.28
2024-02-22T07:22:47.105Z,76.50
2024-02-22T07:25:16.619Z,79.65
2024-02-22T07:27:45.334Z,96.35
2024-02-22T07:30:15.787Z,82.18
2024-02-22T07:32:44.398Z,91.50
2024-02-22T07:35:15.316Z,80.45
2024-02-22T07:37:43.900Z,79.38
2024-02-22T07:40:12.845Z,95.20
2024-02-22T07:42:42.803Z,97.80
2024-02-22T07:45:12.651Z,77.15
2024-02-22T07:47:41.325Z,93.95
2024-02-22T07:50:13.361Z,92.05
2024-02-22T07:52:42.463Z,83.85
2024-02-22T07:55:11.427Z,23.40
2024-02-22T07:57:40.290Z,78.28
2024-02-22T08:00:10.032Z,103.20
2024-02-22T08:02:38.880Z,76.57
2024-02-22T08:05:08.164Z,97.50
2024-02-22T08:07:36.745Z,84.10
2024-02-22T08:10:05.593Z,101.53
2024-02-22T08:12:34.595Z,75.95
2024-02-22T08:15:04.817Z,73.60
2024-02-22T08:17:33.967Z,94.85
2024-02-22T08:20:02.981Z,105.00
2024-02-22T08:22:31.689Z,80.80
2024-02-22T08:25:00.234Z,100.20
2024-02-22T08:27:28.735Z,64.45
2024-02-22T08:29:57.235Z,95.25
2024-02-22T08:32:25.800Z,77.47
2024-02-22T08:34:54.502Z,99.03
2024-02-22T08:37:23.181Z,99.35
2024-02-22T08:39:52.024Z,109.35
2024-02-22T08:42:22.368Z,73.25
2024-02-22T08:44:51.777Z,98.30
2024-02-22T08:47:20.416Z,90.32
2024-02-22T08:49:49.379Z,113.55
2024-02-22T08:52:20.139Z,81.25
2024-02-22T08:54:49.554Z,159.25
2024-02-22T08:57:18.089Z,108.63
2024-02-22T08:59:46.634Z,102.80
2024-02-22T09:02:16.187Z,101.55
2024-02-22T09:04:45.365Z,103.00
2024-02-22T09:07:13.966Z,99.03
2024-02-22T09:09:42.564Z,100.15
2024-02-22T09:12:11.226Z,96.18
2024-02-22T09:14:40.229Z,99.15
2024-02-22T09:17:08.941Z,68.30
2024-02-22T09:19:37.569Z,78.30
2024-02-22T09:22:06.426Z,102.00
2024-02-22T09:24:35.059Z,102.82
2024-02-22T09:27:03.580Z,106.35
2024-02-22T09:29:32.089Z,85.55
2024-02-22T09:32:00.632Z,113.00
2024-02-22T09:34:29.744Z,107.95
2024-02-22T09:36:58.374Z,86.32
2024-02-22T09:39:26.917Z,81.75
2024-02-22T09:41:56.859Z,170.65
2024-02-22T09:44:26.211Z,121.95
2024-02-22T09:46:58.191Z,97.63
2024-02-22T09:49:27.130Z,124.47
2024-02-22T09:51:56.378Z,119.82
2024-02-22T09:54:27.132Z,115.93
2024-02-22T09:56:57.961Z,115.47
2024-02-22T09:59:26.530Z,118.45
2024-02-22T10:01:58.487Z,110.35
2024-02-22T10:04:27.810Z,107.13
2024-02-22T10:07:03.845Z,99.93
2024-02-22T10:09:33.322Z,112.30
2024-02-22T10:12:07.837Z,111.93
2024-02-22T10:14:39.777Z,104.32
2024-02-22T10:17:09.217Z,103.20
2024-02-22T10:19:37.793Z,103.45
2024-02-22T10:22:06.417Z,104.43
2024-02-22T10:24:35.112Z,97.05
2024-02-22T10:27:09.087Z,106.40
2024-02-22T10:29:39.236Z,101.32
2024-02-22T10:32:09.421Z,77.47
2024-02-22T10:34:38.534Z,99.90
2024-02-22T10:37:07.294Z,99.30
2024-02-22T10:39:36.463Z,80.72
2024-02-22T10:42:05.868Z,100.20
2024-02-22T10:44:34.451Z,99.28
2024-02-22T10:47:05.401Z,77.65
2024-02-22T10:49:34.349Z,81.03
2024-02-22T10:52:06.784Z,97.40
2024-02-22T10:54:36.935Z,30.50
2024-02-22T10:57:08.446Z,99.10
2024-02-22T10:59:37.651Z,102.90
2024-02-22T11:02:06.961Z,104.32
2024-02-22T11:04:36.959Z,99.25
2024-02-22T11:07:09.828Z,81.32
2024-02-22T11:09:45.219Z,101.72
2024-02-22T11:12:15.944Z,101.72
2024-02-22T11:14:44.834Z,106.05
2024-02-22T11:17:20.874Z,105.35
2024-02-22T11:19:54.692Z,76.68
2024-02-22T11:22:23.369Z,110.43
2024-02-22T11:24:51.932Z,102.65
2024-02-22T11:27:21.250Z,97.60
2024-02-22T11:29:49.778Z,78.95
2024-02-22T11:32:22.251Z,98.13
2024-02-22T11:34:55.056Z,100.93
2024-02-22T11:37:23.842Z,77.82
2024-02-22T11:39:59.999Z,97.60
2024-02-22T11:42:30.824Z,99.97
2024-02-22T11:44:59.377Z,84.55
2024-02-22T11:47:28.142Z,107.70
2024-02-22T11:49:56.691Z,98.90
2024-02-22T11:52:27.351Z,103.93
2024-02-22T11:54:55.855Z,100.72
2024-02-22T11:57:24.338Z,99.32
2024-02-22T11:59:52.833Z,21.60
2024-02-22T12:02:22.299Z,75.07
2024-02-22T12:04:52.639Z,98.88
2024-02-22T12:07:22.395Z,81.03
2024-02-22T12:09:51.386Z,65.15
2024-02-22T12:12:20.024Z,96.07
2024-02-22T12:15:01.917Z,99.10
2024-02-22T12:17:34.039Z,76.43
2024-02-22T12:20:04.812Z,92.18
2024-02-22T12:22:36.034Z,91.75
2024-02-22T12:25:04.924Z,66.10
2024-02-22T12:27:34.193Z,95.88
2024-02-22T12:30:03.517Z,94.57
2024-02-22T12:32:32.146Z,78.65
2024-02-22T12:35:01.464Z,94.72
2024-02-22T12:37:30.007Z,78.47
2024-02-22T12:39:58.572Z,74.50
2024-02-22T12:42:27.091Z,97.80
2024-02-22T12:44:55.586Z,94.72
2024-02-22T12:47:24.230Z,98.78
2024-02-22T12:49:53.523Z,66.60
2024-02-22T12:52:22.210Z,84.05
2024-02-22T12:54:50.729Z,99.95
2024-02-22T12:57:19.230Z,100.57
2024-02-22T12:59:47.786Z,98.53
2024-02-22T13:02:16.436Z,98.10
2024-02-22T13:04:45.164Z,102.00
2024-02-22T13:07:15.313Z,99.80
2024-02-22T13:09:43.908Z,78.78
2024-02-22T13:12:12.499Z,93.63
2024-02-22T13:14:41.019Z,98.82
2024-02-22T13:17:10.649Z,82.78
2024-02-22T13:19:39.212Z,74.25
2024-02-22T13:22:07.730Z,76.10
2024-02-22T13:24:37.765Z,100.60
2024-02-22T13:27:08.322Z,97.03
2024-02-22T13:29:37.082Z,97.55
2024-02-22T13:32:05.888Z,74.70
2024-02-22T13:34:37.260Z,101.65
2024-02-22T13:37:08.125Z,98.65
2024-02-22T13:39:36.676Z,95.60
2024-02-22T13:42:05.455Z,79.32
2024-02-22T13:44:34.331Z,102.75
2024-02-22T13:47:02.896Z,100.68
2024-02-22T13:49:31.472Z,108.65
2024-02-22T13:52:06.665Z,116.13
2024-02-22T13:54:39.575Z,111.55
2024-02-22T13:57:08.606Z,112.95
2024-02-22T13:59:37.283Z,100.63
2024-02-22T14:02:06.037Z,106.05
2024-02-22T14:04:34.642Z,98.57
2024-02-22T14:07:06.567Z,105.43
2024-02-22T14:09:35.469Z,73.53
2024-02-22T14:12:05.626Z,99.80
2024-02-22T14:14:34.357Z,101.88
2024-02-22T14:17:04.351Z,74.97
2024-02-22T14:19:33.022Z,80.10
2024-02-22T14:22:01.686Z,75.10
2024-02-22T14:24:30.250Z,74.10
2024-02-22T14:27:12.811Z,72.35
2024-02-22T14:29:45.672Z,94.90
2024-02-22T14:32:16.338Z,96.53
2024-02-22T14:34:45.029Z,92.38
2024-02-22T14:37:13.710Z,72.72
2024-02-22T14:39:43.373Z,85.97
2024-02-22T14:42:11.870Z,84.25
2024-02-22T14:44:40.825Z,70.32
2024-02-22T14:47:10.948Z,76.25
2024-02-22T14:49:45.443Z,24.58
2024-02-22T14:52:14.572Z,92.95
2024-02-22T14:54:44.131Z,95.28
2024-02-22T14:57:13.022Z,90.18
2024-02-22T14:59:41.624Z,87.03
2024-02-22T15:02:10.217Z,92.90
2024-02-22T15:04:38.879Z,73.25
2024-02-22T15:07:08.603Z,76.75
2024-02-22T15:09:37.102Z,75.35
2024-02-22T15:12:06.487Z,94.63
2024-02-22T15:14:35.117Z,72.85
2024-02-22T15:17:04.583Z,92.38
2024-02-22T15:19:35.670Z,96.22
2024-02-22T15:22:07.843Z,74.45
2024-02-22T15:24:36.574Z,72.20
2024-02-22T15:27:05.750Z,73.93
2024-02-22T15:29:34.479Z,86.18
2024-02-22T15:32:03.349Z,80.45
2024-02-22T15:34:32.272Z,100.18
2024-02-22T15:37:00.945Z,75.75
2024-02-22T15:39:29.912Z,71.88
2024-02-22T15:41:58.431Z,89.30
2024-02-22T15:44:27.017Z,74.07
2024-02-22T15:46:55.561Z,97.45
2024-02-22T15:49:24.665Z,83.13
2024-02-22T15:51:56.112Z,67.13
2024-02-22T15:54:24.757Z,66.00
2024-02-22T15:56:53.263Z,82.60
2024-02-22T15:59:21.890Z,71.70
2024-02-22T16:01:52.475Z,79.88
2024-02-22T16:04:21.128Z,63.33
2024-02-22T16:06:51.093Z,67.25
2024-02-22T16:09:19.666Z,59.63
2024-02-22T16:11:48.449Z,66.78
2024-02-22T16:14:17.124Z,35.67
2024-02-22T16:16:48.532Z,59.97
2024-02-22T16:19:17.085Z,83.15
2024-02-22T16:21:45.672Z,83.63
2024-02-22T16:24:14.487Z,85.65
2024-02-22T16:26:44.783Z,89.25
2024-02-22T16:29:13.648Z,93.63
2024-02-22T16:31:42.587Z,80.85
2024-02-22T16:34:12.477Z,73.47
2024-02-22T16:36:41.182Z,89.25
2024-02-22T16:39:12.069Z,73.65
2024-02-22T16:41:42.187Z,81.72
2024-02-22T16:44:10.805Z,83.80
2024-02-22T16:46:45.821Z,90.45
2024-02-22T16:49:14.457Z,85.97
2024-02-22T16:51:43.553Z,74.25
2024-02-22T16:54:12.391Z,82.78
2024-02-22T16:56:44.526Z,92.00
2024-02-22T16:59:13.080Z,74.47
2024-02-22T17:01:41.723Z,80.03
2024-02-22T17:04:11.081Z,80.47
2024-02-22T17:06:39.599Z,65.70
2024-02-22T17:09:08.471Z,80.20
2024-02-22T17:11:37.129Z,98.97
2024-02-22T17:14:06.064Z,74.47
2024-02-22T17:16:36.176Z,71.32
2024-02-22T17:19:04.830Z,54.88
2024-02-22T17:21:33.367Z,80.28
2024-02-22T17:24:01.895Z,75.53
2024-02-22T17:26:30.517Z,71.68
2024-02-22T17:28:59.216Z,76.68
2024-02-22T17:31:28.656Z,80.40
2024-02-22T17:33:57.292Z,99.38
2024-02-22T17:36:25.855Z,90.60
2024-02-22T17:38:54.522Z,74.38
2024-02-22T17:41:23.244Z,84.55
2024-02-22T17:43:52.101Z,66.78
2024-02-22T17:46:21.605Z,52.05
2024-02-22T17:48:50.183Z,55.53
2024-02-22T17:51:22.419Z,55.67
2024-02-22T17:53:51.631Z,57.83
2024-02-22T17:56:20.260Z,57.28
2024-02-22T17:58:55.192Z,53.17
2024-02-22T18:01:26.118Z,53.70
2024-02-22T18:03:54.890Z,55.30
2024-02-22T18:06:24.641Z,84.95
2024-02-22T18:08:54.188Z,47.30
2024-02-22T18:11:22.756Z,56.55
2024-02-22T18:13:51.316Z,44.53
2024-02-22T18:16:19.888Z,56.20
2024-02-22T18:18:48.523Z,56.58
2024-02-22T18:21:17.091Z,46.65
2024-02-22T18:23:46.684Z,82.97
2024-02-22T18:26:16.062Z,100.78
2024-02-22T18:28:45.756Z,100.35
2024-02-22T18:31:14.337Z,117.85
2024-02-22T18:33:43.063Z,101.72
2024-02-22T18:36:12.151Z,77.50
2024-02-22T18:38:43.063Z,66.70
2024-02-22T18:41:15.264Z,91.43
2024-02-22T18:43:44.477Z,93.78
2024-02-22T18:46:13.558Z,78.70
2024-02-22T18:48:42.378Z,100.32
2024-02-22T18:51:11.923Z,79.40
2024-02-22T18:53:40.668Z,74.45
2024-02-22T18:56:09.177Z,96.88
2024-02-22T18:58:37.769Z,93.35
2024-02-22T19:01:06.542Z,77.95
2024-02-22T19:03:35.608Z,93.10
2024-02-22T19:06:04.298Z,94.80
2024-02-22T19:08:32.949Z,93.22
2024-02-22T19:11:01.969Z,82.82
2024-02-22T19:13:30.939Z,99.30
2024-02-22T19:15:59.545Z,96.78
2024-02-22T19:18:28.140Z,75.40
2024-02-22T19:20:59.097Z,74.95
2024-02-22T19:23:27.999Z,98.18
2024-02-22T19:25:56.953Z,100.03
2024-02-22T19:28:25.590Z,78.18
2024-02-22T19:30:54.457Z,101.55
2024-02-22T19:33:23.006Z,98.97
2024-02-22T19:35:51.731Z,81.93
2024-02-22T19:38:22.483Z,110.05
2024-02-22T19:40:52.649Z,99.28
2024-02-22T19:43:21.286Z,113.57
2024-02-22T19:45:49.970Z,103.78
2024-02-22T19:48:18.451Z,100.70
2024-02-22T19:50:46.919Z,102.60
2024-02-22T19:53:15.855Z,101.22
2024-02-22T19:55:45.070Z,81.28
2024-02-22T19:58:15.700Z,104.28
2024-02-22T20:00:45.011Z,155.70
2024-02-22T20:03:14.055Z,148.23
2024-02-22T20:05:43.039Z,135.27
2024-02-22T20:08:11.859Z,126.15
2024-02-22T20:10:41.958Z,129.82
2024-02-22T20:13:12.058Z,141.98
2024-02-22T20:15:40.812Z,134.80
2024-02-22T20:18:09.326Z,154.68
2024-02-22T20:20:37.946Z,129.63
2024-02-22T20:23:06.526Z,129.93
2024-02-22T20:25:35.008Z,129.70
2024-02-22T20:28:03.860Z,129.55
2024-02-22T20:30:32.478Z,130.77
2024-02-22T20:33:01.010Z,125.15
2024-02-22T20:35:30.040Z,126.75
2024-02-22T20:37:58.779Z,131.05
2024-02-22T20:40:27.336Z,126.88
2024-02-22T20:42:57.986Z,135.40
2024-02-22T20:45:26.531Z,133.15
2024-02-22T20:47:55.169Z,137.35
2024-02-22T20:50:25.729Z,133.77
2024-02-22T20:52:54.309Z,141.73
2024-02-22T20:55:22.830Z,132.32
2024-02-22T20:57:51.876Z,132.95
2024-02-22T21:00:20.606Z,139.98
2024-02-22T21:02:49.218Z,130.05
2024-02-22T21:05:17.841Z,131.00
2024-02-22T21:07:48.397Z,139.98
2024-02-22T21:10:17.595Z,134.77
2024-02-22T21:12:46.083Z,134.05
2024-02-22T21:15:14.652Z,132.35
2024-02-22T21:17:43.242Z,128.57
2024-02-22T21:20:13.007Z,132.82
2024-02-22T21:22:41.598Z,135.73
2024-02-22T21:25:10.276Z,130.02
2024-02-22T21:27:39.166Z,131.48
2024-02-22T21:30:08.632Z,134.43
2024-02-22T21:32:38.139Z,131.95
2024-02-22T21:35:10.759Z,135.02
2024-02-22T21:37:39.657Z,132.05
2024-02-22T21:40:10.688Z,131.98
2024-02-22T21:42:39.550Z,134.55
2024-02-22T21:45:08.577Z,131.07
2024-02-22T21:47:37.319Z,132.75
2024-02-22T21:50:06.781Z,129.50
2024-02-22T21:52:35.578Z,137.25
2024-02-22T21:55:04.904Z,128.23
2024-02-22T21:57:34.854Z,131.98
2024-02-22T22:00:07.216Z,134.13
2024-02-22T22:02:36.528Z,135.13
2024-02-22T22:05:08.399Z,123.38
2024-02-22T22:07:41.042Z,131.23
2024-02-22T22:10:10.716Z,124.55
2024-02-22T22:12:39.429Z,131.02
2024-02-22T22:15:08.410Z,129.68
2024-02-22T22:17:37.843Z,119.50
2024-02-22T22:20:07.498Z,124.25
2024-02-22T22:22:36.327Z,130.18
2024-02-22T22:25:05.154Z,132.10
2024-02-22T22:27:33.616Z,137.68
2024-02-22T22:30:02.834Z,135.88
2024-02-22T22:32:31.476Z,131.77
2024-02-22T22:35:00.042Z,135.98
2024-02-22T22:37:28.581Z,131.05
2024-02-22T22:39:57.074Z,129.77
2024-02-22T22:42:25.661Z,134.32
2024-02-22T22:44:54.222Z,130.50
2024-02-22T22:47:22.780Z,130.00
2024-02-22T22:49:51.406Z,130.73
2024-02-22T22:52:20.269Z,124.15
2024-02-22T22:54:48.754Z,137.60
2024-02-22T22:57:17.292Z,132.70
2024-02-22T22:59:48.953Z,127.63
2024-02-22T23:02:17.431Z,125.25
2024-02-22T23:04:45.911Z,119.65
2024-02-22T23:07:15.092Z,119.90
2024-02-22T23:09:44.699Z,132.77
2024-02-22T23:12:13.364Z,122.60
2024-02-22T23:14:42.065Z,95.63
2024-02-22T23:17:10.852Z,130.75
2024-02-22T23:19:39.331Z,130.50
2024-02-22T23:22:07.897Z,122.53
2024-02-22T23:24:36.442Z,120.43
2024-02-22T23:27:06.046Z,123.13
2024-02-22T23:29:34.627Z,127.40
2024-02-22T23:32:03.211Z,122.25
2024-02-22T23:34:31.740Z,111.30
2024-02-22T23:37:00.400Z,129.73
2024-02-22T23:39:28.859Z,134.68
2024-02-22T23:41:58.367Z,141.82
2024-02-22T23:44:27.122Z,142.10
2024-02-22T23:46:56.453Z,142.10
2024-02-22T23:49:25.165Z,131.18
2024-02-22T23:51:53.660Z,135.30
2024-02-22T23:54:22.131Z,127.75
2024-02-22T23:56:50.580Z,131.15
2024-02-22T23:59:20.093Z,105.40
